createdAt,value
2019-02-21T00:00:35.967Z,13.30
2019-02-21T00:01:13.816Z,11.38
2019-02-21T00:01:48.214Z,18.67
2019-02-21T00:02:24.050Z,16.62
2019-02-21T00:02:57.549Z,12.80
2019-02-21T00:03:31.107Z,11.78
2019-02-21T00:04:04.727Z,14.47
2019-02-21T00:04:38.243Z,10.32
2019-02-21T00:05:11.734Z,11.60
2019-02-21T00:05:45.289Z,11.15
2019-02-21T00:06:18.877Z,17.30
2019-02-21T00:06:52.371Z,15.80
2019-02-21T00:07:25.868Z,14.90
2019-02-21T00:07:59.407Z,15.00
2019-02-21T00:08:33.205Z,12.78
2019-02-21T00:09:07.458Z,14.70
2019-02-21T00:09:40.924Z,18.67
2019-02-21T00:10:14.538Z,12.43
2019-02-21T00:10:48.030Z,12.85
2019-02-21T00:11:21.508Z,11.25
2019-02-21T00:11:54.925Z,11.40
2019-02-21T00:12:47.519Z,14.80
2019-02-21T00:13:21.046Z,17.32
2019-02-21T00:13:54.564Z,13.70
2019-02-21T00:14:28.075Z,11.80
2019-02-21T00:15:01.498Z,14.58
2019-02-21T00:15:35.003Z,13.60
2019-02-21T00:16:08.504Z,14.75
2019-02-21T00:16:42.017Z,13.55
2019-02-21T00:17:15.506Z,14.73
2019-02-21T00:17:49.017Z,13.32
2019-02-21T00:18:22.522Z,16.32
2019-02-21T00:18:56.030Z,11.35
2019-02-21T00:19:29.519Z,17.20
2019-02-21T00:20:03.574Z,12.75
2019-02-21T00:20:37.146Z,11.65
2019-02-21T00:21:10.719Z,15.18
2019-02-21T00:21:44.242Z,12.75
2019-02-21T00:22:17.760Z,12.58
2019-02-21T00:22:51.281Z,16.67
2019-02-21T00:23:24.782Z,16.40
2019-02-21T00:23:58.203Z,15.68
2019-02-21T00:24:31.971Z,17.15
2019-02-21T00:25:05.477Z,17.02
2019-02-21T00:25:38.964Z,14.65
2019-02-21T00:26:12.483Z,14.35
2019-02-21T00:26:46.042Z,15.23
2019-02-21T00:27:19.553Z,18.35
2019-02-21T00:27:52.982Z,14.47
2019-02-21T00:28:26.398Z,11.38
2019-02-21T00:28:59.889Z,12.58
2019-02-21T00:29:34.246Z,18.10
2019-02-21T00:30:07.747Z,19.15
2019-02-21T00:30:41.235Z,22.40
2019-02-21T00:31:14.737Z,18.57
2019-02-21T00:31:48.153Z,17.82
2019-02-21T00:32:21.625Z,23.55
2019-02-21T00:32:55.134Z,17.90
2019-02-21T00:33:28.627Z,12.03
2019-02-21T00:34:02.144Z,11.90
2019-02-21T00:34:35.671Z,17.45
2019-02-21T00:35:09.198Z,14.47
2019-02-21T00:35:42.706Z,17.45
2019-02-21T00:36:16.219Z,15.53
2019-02-21T00:36:49.714Z,14.45
2019-02-21T00:37:23.178Z,22.65
2019-02-21T00:37:56.594Z,16.97
2019-02-21T00:38:30.163Z,16.05
2019-02-21T00:39:05.358Z,12.33
2019-02-21T00:39:38.857Z,13.28
2019-02-21T00:40:12.354Z,11.30
2019-02-21T00:40:45.983Z,14.90
2019-02-21T00:41:19.491Z,16.20
2019-02-21T00:41:52.991Z,14.15
2019-02-21T00:42:29.280Z,13.78
2019-02-21T00:43:02.778Z,11.30
2019-02-21T00:43:36.394Z,16.17
2019-02-21T00:44:09.967Z,14.03
2019-02-21T00:44:43.369Z,18.80
2019-02-21T00:45:16.871Z,12.47
2019-02-21T00:45:50.441Z,16.20
2019-02-21T00:46:23.850Z,15.72
2019-02-21T00:46:57.345Z,15.45
2019-02-21T00:47:30.748Z,16.60
2019-02-21T00:48:04.237Z,17.25
2019-02-21T00:48:37.706Z,14.10
2019-02-21T00:49:11.209Z,17.05
2019-02-21T00:49:44.677Z,17.65
2019-02-21T00:50:18.267Z,17.90
2019-02-21T00:50:51.863Z,13.03
2019-02-21T00:51:25.418Z,15.50
2019-02-21T00:51:58.917Z,12.05
2019-02-21T00:52:32.706Z,13.83
2019-02-21T00:53:06.230Z,18.60
2019-02-21T00:53:39.685Z,15.38
2019-02-21T00:54:13.273Z,13.05
2019-02-21T00:54:46.770Z,12.70
2019-02-21T00:55:20.219Z,15.85
2019-02-21T00:55:53.727Z,14.43
2019-02-21T00:56:27.235Z,20.37
2019-02-21T00:57:00.709Z,15.78
2019-02-21T00:57:34.150Z,14.20
2019-02-21T00:58:07.645Z,14.13
2019-02-21T00:58:41.143Z,14.70
2019-02-21T00:59:14.649Z,11.80
2019-02-21T00:59:48.090Z,15.05
2019-02-21T01:00:21.583Z,13.45
2019-02-21T01:00:55.116Z,18.50
2019-02-21T01:01:30.835Z,16.80
2019-02-21T01:02:04.331Z,14.68
2019-02-21T01:02:37.843Z,15.45
2019-02-21T01:03:11.432Z,12.75
2019-02-21T01:03:44.933Z,23.15
2019-02-21T01:04:18.452Z,16.23
2019-02-21T01:04:51.939Z,15.53
2019-02-21T01:05:25.442Z,20.82
2019-02-21T01:05:58.951Z,15.23
2019-02-21T01:06:32.453Z,16.20
2019-02-21T01:07:05.949Z,17.23
2019-02-21T01:07:39.447Z,16.87
2019-02-21T01:08:13.018Z,17.32
2019-02-21T01:08:48.133Z,18.75
2019-02-21T01:09:21.646Z,14.75
2019-02-21T01:09:55.145Z,18.12
2019-02-21T01:10:28.638Z,17.15
2019-02-21T01:11:02.163Z,22.22
2019-02-21T01:11:35.603Z,12.05
2019-02-21T01:12:09.026Z,10.80
2019-02-21T01:12:42.433Z,16.67
2019-02-21T01:13:15.936Z,16.97
2019-02-21T01:13:49.470Z,24.30
2019-02-21T01:14:22.992Z,14.23
2019-02-21T01:14:56.413Z,18.30
2019-02-21T01:15:29.914Z,13.15
2019-02-21T01:16:03.425Z,18.15
2019-02-21T01:16:36.963Z,17.30
2019-02-21T01:17:10.403Z,17.35
2019-02-21T01:17:43.915Z,18.60
2019-02-21T01:18:17.603Z,15.55
2019-02-21T01:18:51.113Z,18.25
2019-02-21T01:19:24.558Z,15.53
2019-02-21T01:19:58.082Z,19.85
2019-02-21T01:20:31.592Z,16.05
2019-02-21T01:21:05.199Z,16.02
2019-02-21T01:21:38.772Z,17.25
2019-02-21T01:22:12.307Z,16.35
2019-02-21T01:22:45.804Z,15.75
2019-02-21T01:23:19.314Z,19.85
2019-02-21T01:23:52.818Z,16.90
2019-02-21T01:24:28.491Z,14.98
2019-02-21T01:25:02.344Z,17.37
2019-02-21T01:25:35.847Z,19.85
2019-02-21T01:26:09.599Z,16.55
2019-02-21T01:26:43.116Z,19.92
2019-02-21T01:27:16.598Z,18.35
2019-02-21T01:27:50.098Z,18.20
2019-02-21T01:28:23.615Z,17.57
2019-02-21T01:28:57.039Z,16.95
2019-02-21T01:29:30.531Z,19.60
2019-02-21T01:30:04.274Z,18.62
2019-02-21T01:30:37.784Z,13.55
2019-02-21T01:31:11.286Z,20.48
2019-02-21T01:31:44.783Z,16.62
2019-02-21T01:32:18.285Z,18.20
2019-02-21T01:32:51.847Z,16.57
2019-02-21T01:33:25.379Z,17.30
2019-02-21T01:33:58.870Z,20.75
2019-02-21T01:34:32.397Z,18.45
2019-02-21T01:35:06.079Z,23.15
2019-02-21T01:35:39.642Z,17.07
2019-02-21T01:36:14.109Z,18.60
2019-02-21T01:36:47.603Z,15.78
2019-02-21T01:37:21.262Z,18.05
2019-02-21T01:37:54.775Z,16.95
2019-02-21T01:38:28.278Z,21.90
2019-02-21T01:39:01.781Z,14.78
2019-02-21T01:39:35.284Z,16.23
2019-02-21T01:40:08.800Z,15.38
2019-02-21T01:40:42.286Z,24.98
2019-02-21T01:41:15.814Z,16.30
2019-02-21T01:41:49.389Z,17.35
2019-02-21T01:42:22.814Z,17.35
2019-02-21T01:42:56.415Z,21.50
2019-02-21T01:43:29.957Z,19.65
2019-02-21T01:44:04.628Z,24.45
2019-02-21T01:44:38.356Z,18.23
2019-02-21T01:45:11.862Z,17.62
2019-02-21T01:45:45.508Z,16.77
2019-02-21T01:46:19.979Z,18.55
2019-02-21T01:46:53.572Z,16.15
2019-02-21T01:47:27.107Z,18.00
2019-02-21T01:48:00.621Z,20.82
2019-02-21T01:48:34.210Z,21.68
2019-02-21T01:49:07.707Z,21.02
2019-02-21T01:49:41.206Z,24.10
2019-02-21T01:50:14.821Z,22.35
2019-02-21T01:50:48.358Z,21.35
2019-02-21T01:51:21.914Z,21.02
2019-02-21T01:51:55.486Z,20.92
2019-02-21T01:52:28.994Z,21.68
2019-02-21T01:53:02.866Z,20.82
2019-02-21T01:53:36.471Z,18.95
2019-02-21T01:54:09.986Z,24.75
2019-02-21T01:54:43.417Z,23.80
2019-02-21T01:55:16.919Z,22.30
2019-02-21T01:55:50.403Z,22.73
2019-02-21T01:56:23.964Z,18.85
2019-02-21T01:56:57.507Z,25.65
2019-02-21T01:57:31.089Z,22.27
2019-02-21T01:58:04.604Z,21.90
2019-02-21T01:58:38.125Z,25.32
2019-02-21T01:59:11.640Z,18.92
2019-02-21T01:59:45.215Z,17.62
2019-02-21T02:00:18.925Z,19.70
2019-02-21T02:00:52.522Z,24.12
2019-02-21T02:01:26.042Z,16.80
2019-02-21T02:01:59.569Z,20.35
2019-02-21T02:02:33.118Z,21.23
2019-02-21T02:03:06.739Z,19.52
2019-02-21T02:03:40.325Z,20.85
2019-02-21T02:04:13.860Z,20.02
2019-02-21T02:04:47.502Z,27.55
2019-02-21T02:05:21.002Z,22.52
2019-02-21T02:05:54.542Z,21.82
2019-02-21T02:06:27.998Z,23.92
2019-02-21T02:07:01.543Z,21.07
2019-02-21T02:07:35.114Z,23.10
2019-02-21T02:08:08.619Z,23.25
2019-02-21T02:08:42.121Z,19.50
2019-02-21T02:09:15.638Z,24.80
2019-02-21T02:09:49.289Z,26.37
2019-02-21T02:10:22.763Z,24.18
2019-02-21T02:10:56.449Z,22.60
2019-02-21T02:11:30.267Z,26.00
2019-02-21T02:12:03.920Z,26.82
2019-02-21T02:12:37.455Z,21.52
2019-02-21T02:13:23.764Z,23.80
2019-02-21T02:13:46.182Z,27.55
2019-02-21T02:14:19.767Z,23.57
2019-02-21T02:14:53.324Z,24.70
2019-02-21T02:15:27.244Z,26.17
2019-02-21T02:16:00.926Z,23.07
2019-02-21T02:16:34.536Z,22.95
2019-02-21T02:17:08.060Z,20.75
2019-02-21T02:17:41.475Z,27.75
2019-02-21T02:18:17.790Z,24.57
2019-02-21T02:18:51.291Z,22.58
2019-02-21T02:19:24.833Z,28.52
2019-02-21T02:19:58.348Z,27.85
2019-02-21T02:20:31.835Z,21.33
2019-02-21T02:21:05.614Z,27.58
2019-02-21T02:21:40.145Z,28.62
2019-02-21T02:22:13.807Z,24.07
2019-02-21T02:22:47.347Z,26.80
2019-02-21T02:23:20.917Z,26.27
2019-02-21T02:23:54.458Z,27.55
2019-02-21T02:24:27.959Z,26.60
2019-02-21T02:25:01.472Z,26.48
2019-02-21T02:25:34.957Z,26.82
2019-02-21T02:26:08.499Z,24.10
2019-02-21T02:26:42.137Z,27.70
2019-02-21T02:27:15.807Z,29.18
2019-02-21T02:27:49.305Z,23.30
2019-02-21T02:28:22.809Z,19.82
2019-02-21T02:28:56.305Z,26.12
2019-02-21T02:29:29.821Z,31.27
2019-02-21T02:30:03.325Z,28.50
2019-02-21T02:30:36.940Z,26.33
2019-02-21T02:31:22.271Z,23.73
2019-02-21T02:31:46.308Z,31.93
2019-02-21T02:32:20.063Z,28.20
2019-02-21T02:32:53.554Z,27.13
2019-02-21T02:33:27.099Z,22.30
2019-02-21T02:34:00.594Z,27.93
2019-02-21T02:34:34.425Z,19.17
2019-02-21T02:35:07.966Z,24.77
2019-02-21T02:35:41.558Z,24.00
2019-02-21T02:36:15.122Z,24.25
2019-02-21T02:36:48.615Z,23.83
2019-02-21T02:37:22.413Z,25.23
2019-02-21T02:37:55.861Z,26.73
2019-02-21T02:38:29.910Z,23.07
2019-02-21T02:39:04.733Z,28.70
2019-02-21T02:39:38.225Z,31.50
2019-02-21T02:40:11.726Z,32.25
2019-02-21T02:40:45.238Z,27.80
2019-02-21T02:41:18.689Z,26.42
2019-02-21T02:41:52.360Z,28.98
2019-02-21T02:42:25.950Z,24.32
2019-02-21T02:42:59.469Z,30.23
2019-02-21T02:43:32.958Z,27.30
2019-02-21T02:44:06.460Z,27.45
2019-02-21T02:44:39.990Z,27.73
2019-02-21T02:45:13.514Z,29.85
2019-02-21T02:45:47.183Z,27.67
2019-02-21T02:46:20.678Z,27.80
2019-02-21T02:46:54.134Z,25.55
2019-02-21T02:47:27.564Z,29.25
2019-02-21T02:48:01.067Z,25.68
2019-02-21T02:48:34.565Z,26.12
2019-02-21T02:49:08.097Z,27.22
2019-02-21T02:49:41.669Z,27.22
2019-02-21T02:50:15.227Z,27.25
2019-02-21T02:50:48.734Z,24.50
2019-02-21T02:51:22.233Z,22.07
2019-02-21T02:51:55.743Z,31.80
2019-02-21T02:52:29.270Z,25.57
2019-02-21T02:53:02.861Z,26.95
2019-02-21T02:53:36.363Z,30.92
2019-02-21T02:54:09.870Z,22.32
2019-02-21T02:54:43.398Z,27.13
2019-02-21T02:55:16.945Z,29.90
2019-02-21T02:55:50.432Z,27.95
2019-02-21T02:56:23.919Z,22.70
2019-02-21T02:56:57.505Z,26.87
2019-02-21T02:57:31.081Z,25.85
2019-02-21T02:58:06.570Z,25.55
2019-02-21T02:58:39.938Z,28.83
2019-02-21T02:59:13.517Z,33.73
2019-02-21T02:59:46.959Z,25.57
2019-02-21T03:00:20.514Z,25.12
2019-02-21T03:00:53.989Z,26.30
2019-02-21T03:01:34.745Z,30.50
2019-02-21T03:02:02.962Z,28.92
2019-02-21T03:02:36.506Z,24.23
2019-02-21T03:03:10.010Z,30.45
2019-02-21T03:03:43.536Z,28.52
2019-02-21T03:04:17.072Z,26.82
2019-02-21T03:04:50.672Z,30.10
2019-02-21T03:05:24.246Z,30.80
2019-02-21T03:06:01.449Z,30.32
2019-02-21T03:06:37.593Z,23.52
2019-02-21T03:07:13.490Z,25.30
2019-02-21T03:07:49.665Z,27.60
2019-02-21T03:08:25.134Z,30.90
2019-02-21T03:08:58.698Z,32.50
2019-02-21T03:09:32.150Z,34.45
2019-02-21T03:10:06.641Z,25.52
2019-02-21T03:10:40.150Z,30.12
2019-02-21T03:11:13.688Z,28.38
2019-02-21T03:11:47.239Z,28.62
2019-02-21T03:12:20.744Z,32.48
2019-02-21T03:12:54.274Z,31.30
2019-02-21T03:13:27.822Z,25.90
2019-02-21T03:14:01.398Z,23.32
2019-02-21T03:14:34.882Z,35.45
2019-02-21T03:15:08.535Z,31.12
2019-02-21T03:15:42.119Z,27.05
2019-02-21T03:16:15.660Z,33.50
2019-02-21T03:16:49.227Z,28.50
2019-02-21T03:17:22.752Z,24.63
2019-02-21T03:17:56.266Z,32.28
2019-02-21T03:18:29.760Z,32.15
2019-02-21T03:19:03.278Z,31.73
2019-02-21T03:19:36.785Z,29.67
2019-02-21T03:20:10.518Z,29.95
2019-02-21T03:20:44.244Z,28.75
2019-02-21T03:21:17.833Z,27.17
2019-02-21T03:21:51.322Z,28.90
2019-02-21T03:22:24.829Z,31.70
2019-02-21T03:22:58.719Z,24.87
2019-02-21T03:23:32.239Z,31.62
2019-02-21T03:24:05.760Z,26.75
2019-02-21T03:24:39.254Z,28.52
2019-02-21T03:25:12.752Z,29.82
2019-02-21T03:25:46.263Z,27.48
2019-02-21T03:26:19.680Z,33.02
2019-02-21T03:26:53.171Z,26.40
2019-02-21T03:27:26.681Z,28.75
2019-02-21T03:28:01.210Z,30.52
2019-02-21T03:28:34.725Z,28.40
2019-02-21T03:29:08.241Z,31.07
2019-02-21T03:29:41.658Z,31.57
2019-02-21T03:30:15.158Z,32.73
2019-02-21T03:30:48.636Z,30.75
2019-02-21T03:31:22.148Z,30.27
2019-02-21T03:31:56.280Z,32.55
2019-02-21T03:32:30.095Z,31.87
2019-02-21T03:33:03.610Z,33.70
2019-02-21T03:33:37.263Z,30.52
2019-02-21T03:34:10.806Z,31.15
2019-02-21T03:34:44.326Z,30.35
2019-02-21T03:35:17.924Z,36.55
2019-02-21T03:35:51.453Z,33.18
2019-02-21T03:36:25.053Z,30.55
2019-02-21T03:36:58.501Z,26.93
2019-02-21T03:37:32.104Z,32.98
2019-02-21T03:38:05.630Z,30.62
2019-02-21T03:38:39.134Z,30.88
2019-02-21T03:39:12.809Z,34.45
2019-02-21T03:39:46.249Z,29.32
2019-02-21T03:40:19.689Z,31.73
2019-02-21T03:40:53.221Z,28.75
2019-02-21T03:41:26.736Z,36.38
2019-02-21T03:42:00.230Z,33.85
2019-02-21T03:42:33.727Z,34.43
2019-02-21T03:43:07.237Z,37.30
2019-02-21T03:43:40.719Z,35.70
2019-02-21T03:44:14.130Z,39.48
2019-02-21T03:44:47.626Z,34.95
2019-02-21T03:45:21.133Z,35.73
2019-02-21T03:45:54.630Z,28.20
2019-02-21T03:46:28.103Z,33.42
2019-02-21T03:47:01.677Z,32.85
2019-02-21T03:47:35.163Z,34.85
2019-02-21T03:48:08.619Z,31.95
2019-02-21T03:48:42.351Z,31.93
2019-02-21T03:49:15.846Z,33.13
2019-02-21T03:49:49.330Z,29.92
2019-02-21T03:50:22.840Z,30.10
2019-02-21T03:50:56.275Z,32.33
2019-02-21T03:51:29.843Z,29.02
2019-02-21T03:52:03.327Z,34.88
2019-02-21T03:52:36.915Z,33.83
2019-02-21T03:53:10.426Z,38.10
2019-02-21T03:53:43.984Z,34.70
2019-02-21T03:54:17.556Z,31.80
2019-02-21T03:54:51.063Z,26.60
2019-02-21T03:55:26.103Z,39.45
2019-02-21T03:56:18.747Z,36.85
2019-02-21T03:56:52.250Z,31.97
2019-02-21T03:57:25.765Z,34.85
2019-02-21T03:57:59.280Z,31.00
2019-02-21T03:58:32.801Z,32.35
2019-02-21T03:59:06.285Z,35.28
2019-02-21T03:59:39.770Z,35.17
2019-02-21T04:00:13.263Z,34.98
2019-02-21T04:00:46.771Z,28.77
2019-02-21T04:01:20.271Z,32.33
2019-02-21T04:02:04.497Z,34.60
2019-02-21T04:02:29.040Z,30.17
2019-02-21T04:03:02.530Z,35.58
2019-02-21T04:03:36.051Z,35.28
2019-02-21T04:04:09.545Z,34.25
2019-02-21T04:04:43.049Z,41.13
2019-02-21T04:05:16.635Z,36.38
2019-02-21T04:05:50.137Z,32.10
2019-02-21T04:06:23.912Z,33.10
2019-02-21T04:06:57.400Z,39.88
2019-02-21T04:07:30.904Z,33.50
2019-02-21T04:08:04.467Z,38.58
2019-02-21T04:08:38.118Z,33.80
2019-02-21T04:09:11.610Z,31.15
2019-02-21T04:09:45.125Z,36.65
2019-02-21T04:10:18.623Z,42.17
2019-02-21T04:10:52.172Z,34.18
2019-02-21T04:11:25.678Z,36.50
2019-02-21T04:11:59.189Z,32.10
2019-02-21T04:12:32.670Z,33.38
2019-02-21T04:13:06.155Z,36.05
2019-02-21T04:13:39.663Z,33.95
2019-02-21T04:14:13.231Z,32.42
2019-02-21T04:14:46.718Z,44.00
2019-02-21T04:15:20.283Z,36.35
2019-02-21T04:15:53.769Z,34.75
2019-02-21T04:16:27.202Z,35.80
2019-02-21T04:17:00.635Z,44.50
2019-02-21T04:17:34.154Z,38.33
2019-02-21T04:18:07.697Z,37.73
2019-02-21T04:18:41.643Z,39.65
2019-02-21T04:19:15.153Z,33.13
2019-02-21T04:19:48.649Z,38.90
2019-02-21T04:20:22.181Z,35.48
2019-02-21T04:20:55.676Z,35.55
2019-02-21T04:21:29.170Z,35.90
2019-02-21T04:22:02.657Z,39.00
2019-02-21T04:22:36.111Z,38.45
2019-02-21T04:23:09.553Z,40.55
2019-02-21T04:23:43.072Z,39.70
2019-02-21T04:24:16.578Z,35.45
2019-02-21T04:24:50.172Z,35.15
2019-02-21T04:25:23.587Z,40.33
2019-02-21T04:25:57.079Z,40.03
2019-02-21T04:26:30.577Z,37.58
2019-02-21T04:27:04.083Z,35.10
2019-02-21T04:27:37.510Z,37.83
2019-02-21T04:28:10.994Z,40.98
2019-02-21T04:28:45.771Z,35.25
2019-02-21T04:29:19.600Z,35.30
2019-02-21T04:29:53.138Z,40.50
2019-02-21T04:30:26.630Z,37.25
2019-02-21T04:31:00.139Z,38.90
2019-02-21T04:31:33.548Z,38.13
2019-02-21T04:32:16.634Z,40.05
2019-02-21T04:32:42.186Z,36.65
2019-02-21T04:33:15.694Z,40.28
2019-02-21T04:33:49.202Z,32.45
2019-02-21T04:34:22.633Z,33.30
2019-02-21T04:34:56.143Z,38.67
2019-02-21T04:35:29.725Z,36.85
2019-02-21T04:36:03.312Z,40.58
2019-02-21T04:36:37.060Z,36.68
2019-02-21T04:37:10.508Z,38.48
2019-02-21T04:37:44.005Z,35.83
2019-02-21T04:38:17.502Z,32.50
2019-02-21T04:38:51.407Z,34.78
2019-02-21T04:39:24.930Z,37.17
2019-02-21T04:39:58.506Z,40.28
2019-02-21T04:40:32.018Z,34.18
2019-02-21T04:41:05.445Z,37.75
2019-02-21T04:41:39.166Z,39.10
2019-02-21T04:42:12.587Z,34.10
2019-02-21T04:42:46.060Z,39.80
2019-02-21T04:43:19.543Z,41.63
2019-02-21T04:43:53.062Z,36.03
2019-02-21T04:44:26.592Z,40.65
2019-02-21T04:45:00.494Z,33.98
2019-02-21T04:45:34.155Z,40.80
2019-02-21T04:46:07.652Z,38.30
2019-02-21T04:46:41.077Z,37.70
2019-02-21T04:47:14.495Z,35.52
2019-02-21T04:47:48.013Z,36.73
2019-02-21T04:48:21.567Z,40.88
2019-02-21T04:48:55.459Z,43.98
2019-02-21T04:49:28.879Z,36.45
2019-02-21T04:50:02.297Z,34.83
2019-02-21T04:50:35.788Z,38.08
2019-02-21T04:51:09.278Z,37.67
2019-02-21T04:51:42.770Z,37.63
2019-02-21T04:52:16.255Z,36.40
2019-02-21T04:52:49.745Z,46.08
2019-02-21T04:53:42.341Z,42.05
2019-02-21T04:54:15.791Z,38.33
2019-02-21T04:54:49.299Z,37.45
2019-02-21T04:55:28.133Z,43.42
2019-02-21T04:56:01.628Z,34.03
2019-02-21T04:56:35.121Z,35.10
2019-02-21T04:57:08.627Z,38.45
2019-02-21T04:57:42.136Z,42.75
2019-02-21T04:58:15.629Z,40.05
2019-02-21T04:58:49.060Z,42.35
2019-02-21T04:59:22.619Z,40.43
2019-02-21T04:59:56.179Z,43.40
2019-02-21T05:00:29.792Z,45.75
2019-02-21T05:01:03.301Z,37.70
2019-02-21T05:01:36.882Z,34.53
2019-02-21T05:02:10.355Z,44.55
2019-02-21T05:02:43.852Z,38.45
2019-02-21T05:03:17.555Z,40.75
2019-02-21T05:03:51.098Z,40.20
2019-02-21T05:04:24.649Z,38.60
2019-02-21T05:04:58.085Z,42.70
2019-02-21T05:05:31.503Z,38.85
2019-02-21T05:06:04.983Z,37.38
2019-02-21T05:06:38.474Z,42.05
2019-02-21T05:07:12.027Z,42.75
2019-02-21T05:07:45.519Z,40.65
2019-02-21T05:08:18.994Z,42.73
2019-02-21T05:08:52.601Z,41.15
2019-02-21T05:09:27.229Z,42.93
2019-02-21T05:10:01.070Z,45.35
2019-02-21T05:10:34.574Z,41.30
2019-02-21T05:11:08.077Z,36.70
2019-02-21T05:11:41.516Z,41.58
2019-02-21T05:12:42.232Z,40.50
2019-02-21T05:13:15.755Z,41.25
2019-02-21T05:13:49.308Z,35.68
2019-02-21T05:14:22.739Z,41.58
2019-02-21T05:14:56.171Z,40.50
2019-02-21T05:15:29.711Z,37.93
2019-02-21T05:16:03.206Z,42.23
2019-02-21T05:16:36.829Z,44.88
2019-02-21T05:17:10.268Z,39.45
2019-02-21T05:17:43.767Z,44.27
2019-02-21T05:18:17.260Z,39.03
2019-02-21T05:18:50.734Z,38.30
2019-02-21T05:19:24.245Z,40.48
2019-02-21T05:19:57.790Z,37.28
2019-02-21T05:20:31.279Z,40.23
2019-02-21T05:21:04.784Z,39.80
2019-02-21T05:21:38.249Z,39.88
2019-02-21T05:22:11.756Z,40.78
2019-02-21T05:22:45.264Z,39.18
2019-02-21T05:23:18.706Z,40.63
2019-02-21T05:23:52.131Z,37.83
2019-02-21T05:24:25.658Z,39.05
2019-02-21T05:24:59.151Z,46.55
2019-02-21T05:25:32.643Z,38.08
2019-02-21T05:26:06.926Z,38.80
2019-02-21T05:26:44.182Z,38.80
2019-02-21T05:27:21.158Z,41.95
2019-02-21T05:28:12.728Z,39.30
2019-02-21T05:28:46.268Z,39.70
2019-02-21T05:29:19.759Z,42.20
2019-02-21T05:29:53.406Z,31.97
2019-02-21T05:30:27.933Z,40.08
2019-02-21T05:31:06.227Z,39.18
2019-02-21T05:31:49.762Z,41.20
2019-02-21T05:32:42.398Z,37.98
2019-02-21T05:33:50.196Z,37.88
2019-02-21T05:34:51.568Z,47.80
2019-02-21T05:35:39.638Z,44.20
2019-02-21T05:36:32.295Z,37.80
2019-02-21T05:37:23.266Z,39.83
2019-02-21T05:38:07.695Z,45.95
2019-02-21T05:38:53.813Z,39.25
2019-02-21T05:39:44.994Z,40.90
2019-02-21T05:40:49.650Z,41.63
2019-02-21T05:41:31.704Z,41.50
2019-02-21T05:42:39.343Z,43.13
2019-02-21T05:43:22.527Z,36.38
2019-02-21T05:44:14.022Z,43.28
2019-02-21T05:45:10.998Z,35.38
2019-02-21T05:45:53.284Z,37.35
2019-02-21T05:46:54.857Z,44.00
2019-02-21T05:47:39.450Z,36.75
2019-02-21T05:48:20.295Z,40.15
2019-02-21T05:49:05.743Z,39.27
2019-02-21T05:49:48.372Z,43.02
2019-02-21T05:50:45.431Z,41.55
2019-02-21T05:51:30.434Z,42.62
2019-02-21T05:52:29.944Z,42.65
2019-02-21T05:53:12.143Z,42.33
2019-02-21T05:53:56.233Z,42.10
2019-02-21T05:54:34.470Z,47.40
2019-02-21T05:55:33.283Z,42.55
2019-02-21T05:56:25.929Z,38.35
2019-02-21T05:57:18.644Z,41.65
2019-02-21T05:58:02.655Z,42.10
2019-02-21T05:58:47.109Z,44.65
2019-02-21T05:59:29.597Z,42.88
2019-02-21T06:00:23.334Z,40.88
2019-02-21T06:01:02.877Z,46.40
2019-02-21T06:01:54.203Z,37.63
2019-02-21T06:02:37.518Z,37.35
2019-02-21T06:03:45.426Z,44.30
2019-02-21T06:04:38.066Z,41.75
2019-02-21T06:05:32.817Z,43.02
2019-02-21T06:06:34.402Z,43.70
2019-02-21T06:07:14.503Z,40.50
2019-02-21T06:07:56.805Z,39.45
2019-02-21T06:08:44.118Z,42.00
2019-02-21T06:09:31.716Z,38.90
2019-02-21T06:10:12.999Z,40.10
2019-02-21T06:10:56.003Z,41.02
2019-02-21T06:11:36.785Z,38.92
2019-02-21T06:12:33.748Z,49.45
2019-02-21T06:13:22.278Z,44.90
2019-02-21T06:14:23.712Z,40.95
2019-02-21T06:15:07.422Z,42.15
2019-02-21T06:15:52.341Z,38.33
2019-02-21T06:16:47.602Z,38.88
2019-02-21T06:17:52.215Z,48.08
2019-02-21T06:18:43.565Z,40.78
2019-02-21T06:19:29.634Z,44.33
2019-02-21T06:20:20.690Z,41.35
2019-02-21T06:21:22.438Z,41.60
2019-02-21T06:22:15.046Z,48.42
2019-02-21T06:22:57.712Z,40.83
2019-02-21T06:23:50.398Z,41.77
2019-02-21T06:24:54.927Z,38.05
2019-02-21T06:25:51.915Z,43.92
2019-02-21T06:26:27.755Z,35.33
2019-02-21T06:27:05.875Z,49.03
2019-02-21T06:27:53.872Z,40.63
2019-02-21T06:28:31.126Z,40.08
2019-02-21T06:29:38.643Z,43.10
2019-02-21T06:30:31.305Z,42.90
2019-02-21T06:31:08.330Z,42.15
2019-02-21T06:31:41.885Z,39.30
2019-02-21T06:32:15.373Z,45.63
2019-02-21T06:32:48.883Z,43.28
2019-02-21T06:33:22.302Z,38.73
2019-02-21T06:33:55.722Z,43.68
2019-02-21T06:34:31.637Z,41.75
2019-02-21T06:35:04.898Z,40.90
2019-02-21T06:35:38.416Z,39.78
2019-02-21T06:36:11.931Z,44.15
2019-02-21T06:36:45.421Z,37.95
2019-02-21T06:37:18.895Z,35.20
2019-02-21T06:37:52.324Z,40.10
2019-02-21T06:38:25.813Z,48.65
2019-02-21T06:38:59.359Z,40.92
2019-02-21T06:39:32.811Z,38.10
2019-02-21T06:40:06.348Z,45.98
2019-02-21T06:40:39.862Z,40.00
2019-02-21T06:41:13.345Z,38.58
2019-02-21T06:41:46.873Z,41.28
2019-02-21T06:42:20.419Z,45.33
2019-02-21T06:42:53.920Z,42.17
2019-02-21T06:43:27.411Z,42.15
2019-02-21T06:44:00.928Z,43.42
2019-02-21T06:44:34.483Z,40.05
2019-02-21T06:45:07.970Z,44.90
2019-02-21T06:45:41.476Z,40.83
2019-02-21T06:46:14.892Z,43.92
2019-02-21T06:46:48.389Z,42.30
2019-02-21T06:47:21.858Z,44.77
2019-02-21T06:47:55.355Z,37.53
2019-02-21T06:48:28.853Z,40.50
2019-02-21T06:49:02.363Z,40.63
2019-02-21T06:49:35.874Z,41.45
2019-02-21T06:50:09.375Z,42.20
2019-02-21T06:50:42.897Z,41.40
2019-02-21T06:51:16.446Z,45.98
2019-02-21T06:51:49.933Z,42.62
2019-02-21T06:52:23.503Z,37.38
2019-02-21T06:52:56.933Z,44.03
2019-02-21T06:53:30.486Z,42.08
2019-02-21T06:54:04.131Z,41.30
2019-02-21T06:54:37.742Z,39.40
2019-02-21T06:55:11.244Z,49.83
2019-02-21T06:55:44.742Z,38.45
2019-02-21T06:56:18.261Z,45.43
2019-02-21T06:56:51.690Z,39.45
2019-02-21T06:57:25.206Z,42.13
2019-02-21T06:57:58.638Z,42.05
2019-02-21T06:58:32.127Z,42.38
2019-02-21T06:59:05.636Z,39.75
2019-02-21T06:59:43.304Z,41.30
2019-02-21T07:00:14.355Z,43.25
2019-02-21T07:00:47.871Z,44.08
2019-02-21T07:01:28.205Z,42.95
2019-02-21T07:01:56.591Z,42.62
2019-02-21T07:02:30.940Z,45.75
2019-02-21T07:03:15.238Z,43.17
2019-02-21T07:03:39.678Z,42.98
2019-02-21T07:04:13.160Z,44.73
2019-02-21T07:04:46.666Z,40.67
2019-02-21T07:05:20.080Z,41.25
2019-02-21T07:05:53.572Z,37.85
2019-02-21T07:06:32.076Z,38.05
2019-02-21T07:07:02.493Z,40.70
2019-02-21T07:07:36.244Z,50.23
2019-02-21T07:08:09.732Z,41.80
2019-02-21T07:08:43.228Z,39.00
2019-02-21T07:09:16.775Z,43.95
2019-02-21T07:09:50.270Z,42.83
2019-02-21T07:10:23.775Z,40.20
2019-02-21T07:11:05.949Z,47.95
2019-02-21T07:11:32.455Z,40.20
2019-02-21T07:12:05.971Z,43.30
2019-02-21T07:12:39.519Z,40.10
2019-02-21T07:13:13.012Z,38.42
2019-02-21T07:13:46.555Z,37.85
2019-02-21T07:14:20.050Z,42.17
2019-02-21T07:14:53.554Z,47.00
2019-02-21T07:15:26.982Z,45.30
2019-02-21T07:16:00.484Z,37.75
2019-02-21T07:16:33.995Z,37.70
2019-02-21T07:17:08.511Z,44.15
2019-02-21T07:17:49.336Z,39.85
2019-02-21T07:18:18.491Z,46.90
2019-02-21T07:18:52.054Z,45.38
2019-02-21T07:19:25.558Z,38.33
2019-02-21T07:19:59.069Z,40.55
2019-02-21T07:20:32.582Z,45.52
2019-02-21T07:21:06.077Z,44.70
2019-02-21T07:21:39.556Z,45.92
2019-02-21T07:22:17.884Z,40.23
2019-02-21T07:22:48.238Z,40.67
2019-02-21T07:23:22.351Z,43.83
2019-02-21T07:23:55.852Z,39.90
2019-02-21T07:24:29.373Z,43.17
2019-02-21T07:25:09.101Z,38.00
2019-02-21T07:25:44.870Z,40.43
2019-02-21T07:26:19.955Z,39.60
2019-02-21T07:26:53.478Z,46.05
2019-02-21T07:27:27.057Z,42.70
2019-02-21T07:28:11.213Z,49.45
2019-02-21T07:28:36.379Z,46.37
2019-02-21T07:29:09.883Z,42.25
2019-02-21T07:29:43.368Z,41.35
2019-02-21T07:30:20.221Z,45.63
2019-02-21T07:30:52.178Z,38.28
2019-02-21T07:31:29.109Z,41.85
2019-02-21T07:32:02.121Z,46.13
2019-02-21T07:32:38.610Z,39.73
2019-02-21T07:33:13.750Z,45.20
2019-02-21T07:33:48.715Z,38.17
2019-02-21T07:34:22.853Z,42.70
2019-02-21T07:34:57.295Z,41.60
2019-02-21T07:35:32.986Z,36.25